Time;durP1;ratioP1;P1;durP2;ratioP2;P2;SDS_P1;SDS_P2;PMS_P1;PMS_P2;Temp;Humidity;BMP_temperature;BMP_pressure;BME280_temperature;BME280_humidity;BME280_pressure;Samples;Min_cycle;Max_cycle;Signal;HPM_P1;HPM_P2
2022/05/23 00:00:05;;;;;;;0.70;0.70;;;;;;;;;;5073736;28;20431;-77
2022/05/23 00:02:31;;;;;;;0.80;0.70;;;;;;;;;;5072292;28;20801;-76
2022/05/23 00:04:58;;;;;;;0.70;0.60;;;;;;;;;;5077936;28;20471;-76
2022/05/23 00:07:27;;;;;;;0.70;0.60;;;;;;;;;;5092505;28;20946;-76
2022/05/23 00:09:55;;;;;;;0.80;0.70;;;;;;;;;;5093710;28;20463;-76
2022/05/23 00:12:23;;;;;;;0.80;0.80;;;;;;;;;;5076841;28;20425;-76
2022/05/23 00:14:51;;;;;;;0.80;0.80;;;;;;;;;;5094017;28;20799;-76
2022/05/23 00:17:19;;;;;;;0.80;0.70;;;;;;;;;;5095275;28;20404;-76
2022/05/23 00:19:45;;;;;;;0.70;0.60;;;;;;;;;;5071542;28;20484;-76
2022/05/23 00:22:13;;;;;;;0.70;0.63;;;;;;;;;;5072750;28;20460;-75
2022/05/23 00:24:44;;;;;;;2.00;1.23;;;;;;;;;;5074421;28;20424;-75
2022/05/23 00:27:19;;;;;;;0.70;0.70;;;;;;;;;;5072852;28;20414;-75
2022/05/23 00:29:50;;;;;;;0.70;0.70;;;;;;;;;;5072078;28;20429;-75
2022/05/23 00:35:18;;;;;;;0.80;0.70;;;;;;;;;;5079598;28;20440;-75
2022/05/23 00:37:51;;;;;;;0.80;0.70;;;;;;;;;;5056843;28;20597;-75
2022/05/23 00:40:26;;;;;;;0.70;0.70;;;;;;;;;;5074055;28;20458;-75
2022/05/23 00:43:13;;;;;;;0.80;0.70;;;;;;;;;;5073860;28;20453;-75
2022/05/23 00:45:47;;;;;;;0.80;0.70;;;;;;;;;;5078077;28;20480;-77
2022/05/23 00:48:21;;;;;;;0.70;0.70;;;;;;;;;;5068981;28;20442;-76
2022/05/23 00:50:53;;;;;;;0.70;0.63;;;;;;;;;;5058493;28;20530;-76
2022/05/23 00:53:27;;;;;;;0.70;0.70;;;;;;;;;;5077234;28;20484;-76
2022/05/23 00:56:05;;;;;;;0.70;0.67;;;;;;;;;;5092267;28;20449;-75
2022/05/23 00:58:37;;;;;;;0.70;0.63;;;;;;;;;;5092645;28;20481;-76
2022/05/23 01:01:16;;;;;;;0.70;0.70;;;;;;;;;;5076016;28;20447;-76
2022/05/23 01:03:53;;;;;;;0.77;0.70;;;;;;;;;;5086592;28;20441;-76
2022/05/23 01:06:24;;;;;;;1.20;1.00;;;;;;;;;;5072221;28;20441;-76
2022/05/23 01:09:01;;;;;;;0.80;0.70;;;;;;;;;;5088082;28;20843;-76
2022/05/23 01:11:30;;;;;;;0.80;0.70;;;;;;;;;;5098000;28;20789;-76
2022/05/23 01:13:59;;;;;;;0.77;0.70;;;;;;;;;;5079333;28;20448;-76
2022/05/23 01:16:29;;;;;;;0.80;0.70;;;;;;;;;;5078954;28;20531;-77
2022/05/23 01:19:01;;;;;;;0.70;0.63;;;;;;;;;;5095591;28;20507;-75
2022/05/23 01:21:36;;;;;;;0.70;0.70;;;;;;;;;;5082723;28;20471;-76
2022/05/23 01:24:15;;;;;;;0.70;0.60;;;;;;;;;;5075007;28;21016;-77
2022/05/23 01:26:51;;;;;;;0.70;0.60;;;;;;;;;;5091705;28;20452;-76
2022/05/23 01:29:38;;;;;;;1.10;1.00;;;;;;;;;;5081551;28;20501;-76
2022/05/23 01:32:12;;;;;;;0.70;0.60;;;;;;;;;;5079280;28;20466;-75
2022/05/23 01:34:46;;;;;;;0.70;0.60;;;;;;;;;;5095249;28;20454;-75
2022/05/23 01:37:25;;;;;;;0.70;0.60;;;;;;;;;;5091845;28;20482;-74
2022/05/23 01:40:10;;;;;;;0.70;0.70;;;;;;;;;;5074815;28;20481;-75
2022/05/23 01:42:49;;;;;;;0.80;0.70;;;;;;;;;;5068969;28;20520;-76
2022/05/23 01:45:21;;;;;;;0.70;0.60;;;;;;;;;;5081105;28;20501;-75
2022/05/23 01:47:53;;;;;;;0.80;0.73;;;;;;;;;;5078332;28;20454;-76
2022/05/23 01:50:26;;;;;;;0.70;0.60;;;;;;;;;;5075779;28;20439;-75
2022/05/23 01:53:08;;;;;;;0.70;0.60;;;;;;;;;;5060531;28;20456;-75
2022/05/23 01:56:02;;;;;;;0.70;0.70;;;;;;;;;;5076100;28;21034;-76
2022/05/23 02:01:38;;;;;;;0.70;0.70;;;;;;;;;;5073455;28;20455;-76
2022/05/23 02:04:05;;;;;;;0.70;0.60;;;;;;;;;;5091062;28;20453;-76
2022/05/23 02:06:41;;;;;;;0.70;0.70;;;;;;;;;;5059273;28;20474;-75
2022/05/23 02:09:26;;;;;;;0.70;0.60;;;;;;;;;;5074745;28;20445;-76
2022/05/23 02:12:09;;;;;;;0.73;0.70;;;;;;;;;;5059800;28;20440;-76
2022/05/23 02:14:38;;;;;;;0.80;0.70;;;;;;;;;;5074377;28;20452;-75
2022/05/23 02:17:15;;;;;;;0.80;0.70;;;;;;;;;;5075165;28;20453;-75
2022/05/23 02:19:42;;;;;;;0.70;0.60;;;;;;;;;;5089303;28;20516;-76
2022/05/23 02:22:15;;;;;;;0.70;0.70;;;;;;;;;;5094745;28;20523;-76
2022/05/23 02:24:43;;;;;;;0.80;0.70;;;;;;;;;;5078528;28;20999;-75
2022/05/23 02:27:10;;;;;;;0.70;0.70;;;;;;;;;;5094696;28;20455;-75
2022/05/23 02:29:42;;;;;;;0.70;0.60;;;;;;;;;;5079859;28;20433;-75
2022/05/23 02:32:10;;;;;;;0.70;0.60;;;;;;;;;;5074130;28;20471;-74
2022/05/23 02:34:39;;;;;;;0.70;0.60;;;;;;;;;;5077752;28;20454;-75
2022/05/23 02:37:06;;;;;;;1.17;1.07;;;;;;;;;;5094049;28;20569;-75
2022/05/23 02:39:42;;;;;;;0.90;0.90;;;;;;;;;;5095756;28;20475;-75
2022/05/23 02:42:16;;;;;;;0.77;0.70;;;;;;;;;;5099943;28;20440;-76
2022/05/23 02:44:46;;;;;;;0.70;0.60;;;;;;;;;;5073932;28;20421;-75
2022/05/23 02:47:19;;;;;;;0.80;0.73;;;;;;;;;;5082123;28;20456;-75
2022/05/23 02:49:48;;;;;;;0.70;0.70;;;;;;;;;;5094208;28;20519;-77
2022/05/23 02:52:44;;;;;;;0.70;0.60;;;;;;;;;;5071232;28;20545;-74
2022/05/23 02:55:20;;;;;;;0.80;0.70;;;;;;;;;;5074787;28;20520;-76
2022/05/23 02:57:48;;;;;;;0.80;0.70;;;;;;;;;;5095571;28;20458;-76
2022/05/23 03:00:21;;;;;;;0.80;0.70;;;;;;;;;;5092887;28;20483;-75
2022/05/23 03:03:04;;;;;;;0.70;0.70;;;;;;;;;;5093774;28;20506;-76
2022/05/23 03:05:46;;;;;;;0.70;0.70;;;;;;;;;;5093961;28;20467;-75
2022/05/23 03:08:14;;;;;;;0.80;0.70;;;;;;;;;;5077876;28;20483;-75
2022/05/23 03:10:43;;;;;;;0.73;0.70;;;;;;;;;;5073955;28;20438;-75
2022/05/23 03:13:11;;;;;;;0.80;0.80;;;;;;;;;;5083188;28;20473;-75
2022/05/23 03:15:40;;;;;;;0.70;0.70;;;;;;;;;;5093001;28;20444;-75
2022/05/23 03:18:07;;;;;;;0.80;0.70;;;;;;;;;;5076231;28;20549;-75
2022/05/23 03:20:37;;;;;;;0.70;0.70;;;;;;;;;;5094853;28;20482;-76
2022/05/23 03:28:40;;;;;;;0.73;0.70;;;;;;;;;;5081279;28;20445;-76
2022/05/23 03:31:09;;;;;;;0.83;0.83;;;;;;;;;;5072428;28;20467;-76
2022/05/23 03:33:37;;;;;;;0.70;0.70;;;;;;;;;;5088862;28;20478;-75
2022/05/23 03:36:04;;;;;;;0.80;0.70;;;;;;;;;;5086774;28;20475;-75
2022/05/23 03:38:31;;;;;;;0.70;0.70;;;;;;;;;;5078894;28;20497;-76
2022/05/23 03:41:04;;;;;;;0.70;0.63;;;;;;;;;;5073259;28;20819;-76
2022/05/23 03:43:30;;;;;;;0.80;0.70;;;;;;;;;;5074239;28;20420;-75
2022/05/23 03:46:02;;;;;;;0.70;0.70;;;;;;;;;;5072725;28;20466;-75
2022/05/23 03:48:30;;;;;;;0.80;0.70;;;;;;;;;;5075481;28;20443;-75
2022/05/23 03:50:57;;;;;;;0.70;0.70;;;;;;;;;;5073329;28;20457;-76
2022/05/23 03:53:26;;;;;;;0.70;0.60;;;;;;;;;;5056135;28;20458;-76
2022/05/23 03:55:57;;;;;;;0.80;0.70;;;;;;;;;;5074512;28;20443;-76
2022/05/23 03:58:25;;;;;;;0.70;0.70;;;;;;;;;;5074023;28;20488;-76
2022/05/23 04:01:17;;;;;;;0.70;0.70;;;;;;;;;;5089242;28;20539;-75
2022/05/23 04:03:51;;;;;;;0.80;0.70;;;;;;;;;;5093289;28;20442;-75
2022/05/23 04:06:19;;;;;;;0.80;0.70;;;;;;;;;;5081129;28;21015;-75
2022/05/23 04:08:55;;;;;;;0.80;0.70;;;;;;;;;;5072028;28;20438;-75
2022/05/23 04:11:22;;;;;;;0.70;0.70;;;;;;;;;;5068033;28;20512;-74
2022/05/23 04:13:58;;;;;;;0.70;0.70;;;;;;;;;;5091532;28;20487;-74
2022/05/23 04:16:29;;;;;;;0.70;0.70;;;;;;;;;;5069817;28;20986;-76
2022/05/23 04:18:58;;;;;;;0.70;0.60;;;;;;;;;;5080214;28;20443;-75
2022/05/23 04:21:25;;;;;;;0.80;0.80;;;;;;;;;;5091690;28;20976;-75
2022/05/23 04:23:54;;;;;;;0.80;0.80;;;;;;;;;;5075282;28;20451;-76
2022/05/23 04:26:22;;;;;;;0.70;0.70;;;;;;;;;;5092243;28;20448;-74
2022/05/23 04:28:50;;;;;;;0.80;0.70;;;;;;;;;;5071698;28;20842;-75
2022/05/23 04:31:19;;;;;;;0.80;0.80;;;;;;;;;;5072072;28;20446;-75
2022/05/23 04:36:58;;;;;;;0.80;0.70;;;;;;;;;;5086664;28;20480;-74
2022/05/23 04:39:37;;;;;;;0.80;0.80;;;;;;;;;;5090715;28;20823;-76
2022/05/23 04:42:04;;;;;;;0.90;0.90;;;;;;;;;;5093854;28;20783;-75
2022/05/23 04:44:32;;;;;;;1.23;1.13;;;;;;;;;;5095253;28;21004;-75
2022/05/23 04:49:51;;;;;;;0.70;0.70;;;;;;;;;;5090210;28;20475;-74
2022/05/23 04:52:56;;;;;;;0.70;0.60;;;;;;;;;;5080040;28;20445;-75
2022/05/23 04:55:23;;;;;;;0.70;0.60;;;;;;;;;;5074783;28;20478;-76
2022/05/23 04:57:52;;;;;;;0.80;0.73;;;;;;;;;;5075812;28;20972;-75
2022/05/23 05:00:20;;;;;;;0.70;0.60;;;;;;;;;;5059763;28;20497;-75
2022/05/23 05:02:53;;;;;;;0.80;0.70;;;;;;;;;;5059737;28;20858;-75
2022/05/23 05:05:29;;;;;;;0.70;0.70;;;;;;;;;;5076011;28;20460;-74
2022/05/23 05:07:57;;;;;;;0.77;0.70;;;;;;;;;;5075425;28;20456;-75
2022/05/23 05:10:25;;;;;;;0.80;0.70;;;;;;;;;;5058883;28;20513;-76
2022/05/23 05:12:52;;;;;;;0.70;0.60;;;;;;;;;;5059229;28;20435;-75
2022/05/23 05:15:22;;;;;;;1.00;0.90;;;;;;;;;;5075072;28;20447;-75
2022/05/23 05:17:50;;;;;;;0.77;0.70;;;;;;;;;;5075411;28;20492;-74
2022/05/23 05:20:20;;;;;;;0.70;0.63;;;;;;;;;;5095514;28;21032;-75
2022/05/23 05:23:00;;;;;;;0.70;0.70;;;;;;;;;;5096391;28;20479;-74
2022/05/23 05:25:41;;;;;;;0.70;0.70;;;;;;;;;;5085261;28;20448;-78
2022/05/23 05:28:19;;;;;;;0.70;0.70;;;;;;;;;;5060191;28;20452;-77
2022/05/23 05:30:54;;;;;;;0.70;0.70;;;;;;;;;;5063923;28;20444;-75
2022/05/23 05:33:22;;;;;;;0.80;0.70;;;;;;;;;;5078483;28;20441;-75
2022/05/23 05:35:52;;;;;;;0.80;0.70;;;;;;;;;;5078694;28;20465;-75
2022/05/23 05:38:22;;;;;;;0.80;0.80;;;;;;;;;;5096719;28;20439;-75
2022/05/23 05:40:51;;;;;;;0.80;0.67;;;;;;;;;;5095058;28;20474;-74
2022/05/23 05:43:20;;;;;;;0.80;0.70;;;;;;;;;;5095369;28;20438;-75
2022/05/23 05:45:50;;;;;;;0.80;0.80;;;;;;;;;;5094836;28;20447;-75
2022/05/23 05:48:57;;;;;;;0.77;0.70;;;;;;;;;;5095457;28;20450;-78
2022/05/23 05:51:25;;;;;;;0.70;0.70;;;;;;;;;;5094598;28;20481;-77
2022/05/23 05:54:13;;;;;;;0.80;0.70;;;;;;;;;;5079906;28;20437;-77
2022/05/23 05:56:47;;;;;;;0.70;0.70;;;;;;;;;;5095157;28;20534;-77
2022/05/23 05:59:14;;;;;;;0.70;0.70;;;;;;;;;;5095648;28;20427;-76
2022/05/23 06:01:45;;;;;;;0.80;0.70;;;;;;;;;;5078669;28;20826;-76
2022/05/23 06:04:15;;;;;;;0.70;0.60;;;;;;;;;;5078653;28;20836;-77
2022/05/23 06:12:29;;;;;;;0.80;0.70;;;;;;;;;;5094809;28;20441;-74
2022/05/23 06:15:17;;;;;;;0.80;0.70;;;;;;;;;;5095737;28;20434;-75
2022/05/23 06:17:44;;;;;;;0.70;0.60;;;;;;;;;;5078111;28;20540;-75
2022/05/23 06:20:12;;;;;;;0.70;0.60;;;;;;;;;;5095139;28;20836;-75
2022/05/23 06:22:43;;;;;;;0.77;0.63;;;;;;;;;;5094138;28;20453;-75
2022/05/23 06:25:14;;;;;;;0.80;0.70;;;;;;;;;;5078026;28;20431;-75
2022/05/23 06:27:42;;;;;;;0.80;0.70;;;;;;;;;;5093827;28;20449;-74
2022/05/23 06:30:14;;;;;;;0.80;0.70;;;;;;;;;;5094282;28;20436;-76
2022/05/23 06:32:41;;;;;;;0.80;0.70;;;;;;;;;;5095977;28;20483;-76
2022/05/23 06:35:09;;;;;;;0.80;0.70;;;;;;;;;;5094276;28;20423;-76
2022/05/23 06:37:40;;;;;;;0.80;0.70;;;;;;;;;;5094071;28;20454;-76
2022/05/23 06:40:27;;;;;;;0.77;0.67;;;;;;;;;;5093976;28;20505;-75
2022/05/23 06:43:11;;;;;;;0.80;0.70;;;;;;;;;;5093479;28;20441;-77
2022/05/23 06:45:59;;;;;;;0.80;0.70;;;;;;;;;;5089327;28;20479;-76
2022/05/23 06:48:56;;;;;;;0.80;0.70;;;;;;;;;;5081520;28;20445;-77
2022/05/23 06:51:38;;;;;;;0.80;0.70;;;;;;;;;;5079172;28;20460;-77
2022/05/23 06:54:06;;;;;;;0.70;0.60;;;;;;;;;;5077188;28;20430;-76
2022/05/23 06:56:44;;;;;;;1.07;0.97;;;;;;;;;;5094435;28;20441;-78
2022/05/23 06:59:19;;;;;;;0.80;0.80;;;;;;;;;;5072874;28;20460;-77
2022/05/23 07:01:47;;;;;;;0.70;0.60;;;;;;;;;;5067681;28;20477;-78
2022/05/23 07:04:21;;;;;;;0.80;0.80;;;;;;;;;;5078322;28;20449;-76
2022/05/23 07:12:41;;;;;;;0.80;0.70;;;;;;;;;;5093769;28;20465;-78
2022/05/23 07:15:10;;;;;;;0.77;0.70;;;;;;;;;;5076828;28;20435;-75
2022/05/23 07:17:40;;;;;;;0.70;0.60;;;;;;;;;;5093248;28;20443;-76
2022/05/23 07:20:07;;;;;;;0.80;0.80;;;;;;;;;;5093490;28;20501;-75
2022/05/23 07:22:38;;;;;;;0.80;0.70;;;;;;;;;;5093269;28;20460;-74
2022/05/23 07:25:07;;;;;;;0.80;0.70;;;;;;;;;;5091633;28;20535;-74
2022/05/23 07:27:35;;;;;;;0.80;0.70;;;;;;;;;;5067104;28;20457;-74
2022/05/23 07:30:09;;;;;;;0.97;0.90;;;;;;;;;;5088010;28;20843;-75
2022/05/23 07:32:43;;;;;;;0.80;0.70;;;;;;;;;;5093089;28;20426;-76
2022/05/23 07:35:13;;;;;;;0.73;0.67;;;;;;;;;;5095266;28;20539;-76
2022/05/23 07:37:40;;;;;;;0.80;0.70;;;;;;;;;;5092881;28;20476;-76
2022/05/23 07:40:07;;;;;;;0.80;0.70;;;;;;;;;;5093033;28;22734;-76
2022/05/23 07:42:48;;;;;;;0.80;0.70;;;;;;;;;;5078575;28;20431;-76
2022/05/23 07:45:17;;;;;;;0.80;0.80;;;;;;;;;;5076759;28;20455;-75
2022/05/23 07:47:48;;;;;;;0.70;0.60;;;;;;;;;;5093160;28;20508;-76
2022/05/23 07:50:28;;;;;;;0.80;0.70;;;;;;;;;;5058121;28;20512;-76
2022/05/23 08:01:29;;;;;;;0.80;0.70;;;;;;;;;;5094457;28;20454;-75
2022/05/23 08:04:00;;;;;;;0.93;0.87;;;;;;;;;;5093644;28;20442;-76
2022/05/23 08:06:39;;;;;;;0.80;0.70;;;;;;;;;;5078117;28;20519;-75
2022/05/23 08:09:09;;;;;;;0.80;0.70;;;;;;;;;;5076353;28;20914;-79
2022/05/23 08:11:42;;;;;;;0.70;0.70;;;;;;;;;;5076955;28;20446;-77
2022/05/23 08:14:18;;;;;;;0.90;0.80;;;;;;;;;;5092376;28;20446;-76
2022/05/23 08:16:57;;;;;;;0.97;0.87;;;;;;;;;;5077277;28;20438;-78
2022/05/23 08:19:34;;;;;;;0.80;0.70;;;;;;;;;;5077498;28;20477;-78
2022/05/23 08:22:17;;;;;;;0.70;0.60;;;;;;;;;;5078713;28;20474;-79
2022/05/23 08:24:52;;;;;;;0.73;0.67;;;;;;;;;;5093069;28;20446;-78
2022/05/23 08:27:20;;;;;;;0.80;0.77;;;;;;;;;;5092585;28;20442;-76
2022/05/23 08:29:48;;;;;;;0.80;0.70;;;;;;;;;;5092832;28;20449;-77
2022/05/23 08:32:17;;;;;;;0.80;0.70;;;;;;;;;;5092427;28;20435;-77
2022/05/23 08:34:59;;;;;;;0.83;0.70;;;;;;;;;;5092375;28;20412;-77
2022/05/23 08:37:28;;;;;;;0.80;0.70;;;;;;;;;;5076192;28;20477;-78
2022/05/23 08:39:55;;;;;;;0.80;0.70;;;;;;;;;;5076235;28;20955;-78
2022/05/23 08:42:28;;;;;;;0.80;0.77;;;;;;;;;;5092541;28;20445;-75
2022/05/23 08:45:20;;;;;;;0.77;0.70;;;;;;;;;;5091610;28;20990;-74
2022/05/23 08:47:53;;;;;;;0.80;0.60;;;;;;;;;;5092067;28;20454;-76
2022/05/23 08:50:22;;;;;;;0.70;0.60;;;;;;;;;;5074360;28;20446;-79
2022/05/23 08:52:53;;;;;;;0.80;0.60;;;;;;;;;;5073735;28;20786;-76
2022/05/23 08:55:40;;;;;;;1.10;1.00;;;;;;;;;;5072671;28;20399;-75
2022/05/23 08:58:27;;;;;;;0.80;0.70;;;;;;;;;;5073359;28;20935;-77
2022/05/23 09:00:56;;;;;;;2.80;0.83;;;;;;;;;;5092783;28;20441;-79
2022/05/23 09:03:29;;;;;;;1.47;0.90;;;;;;;;;;5076016;28;20492;-77
2022/05/23 09:06:02;;;;;;;0.70;0.60;;;;;;;;;;5092881;28;20808;-77
2022/05/23 09:08:38;;;;;;;0.90;0.80;;;;;;;;;;5092927;28;20446;-80
2022/05/23 09:11:08;;;;;;;0.80;0.70;;;;;;;;;;5091999;28;20441;-78
2022/05/23 09:13:38;;;;;;;0.80;0.70;;;;;;;;;;5075678;28;20428;-78
2022/05/23 09:16:05;;;;;;;1.57;0.90;;;;;;;;;;5075861;28;20510;-78
2022/05/23 09:18:40;;;;;;;0.80;0.70;;;;;;;;;;5092301;28;20441;-76
2022/05/23 09:21:08;;;;;;;0.80;0.70;;;;;;;;;;5086862;28;20527;-77
2022/05/23 09:23:38;;;;;;;0.80;0.60;;;;;;;;;;5079154;28;20447;-74
2022/05/23 09:26:11;;;;;;;0.80;0.80;;;;;;;;;;5072328;28;20506;-76
2022/05/23 09:28:39;;;;;;;0.70;0.60;;;;;;;;;;5075975;28;20923;-77
2022/05/23 09:31:08;;;;;;;0.80;0.70;;;;;;;;;;5095635;28;20442;-77
2022/05/23 09:33:43;;;;;;;1.00;0.90;;;;;;;;;;5096967;28;20506;-76
2022/05/23 09:36:14;;;;;;;0.70;0.60;;;;;;;;;;5098138;28;20453;-75
2022/05/23 09:38:45;;;;;;;0.70;0.50;;;;;;;;;;5097331;28;20460;-77
2022/05/23 09:47:45;;;;;;;0.70;0.60;;;;;;;;;;5096393;28;20410;-78
2022/05/23 09:50:29;;;;;;;0.80;0.70;;;;;;;;;;5095950;28;20460;-77
2022/05/23 09:53:05;;;;;;;0.80;0.80;;;;;;;;;;5095962;28;20465;-78
2022/05/23 09:55:33;;;;;;;0.77;0.70;;;;;;;;;;5079069;28;20798;-77
2022/05/23 09:58:02;;;;;;;1.20;0.90;;;;;;;;;;5078994;28;20434;-78
2022/05/23 10:00:35;;;;;;;0.80;0.60;;;;;;;;;;5095327;28;20477;-78
2022/05/23 10:03:13;;;;;;;0.80;0.70;;;;;;;;;;5079117;28;20465;-75
2022/05/23 10:05:46;;;;;;;2.03;1.00;;;;;;;;;;5096464;28;20407;-75
2022/05/23 10:08:31;;;;;;;0.77;0.70;;;;;;;;;;5078844;28;20516;-80
2022/05/23 10:11:01;;;;;;;0.70;0.60;;;;;;;;;;5095468;28;20926;-77
2022/05/23 10:13:34;;;;;;;1.63;1.53;;;;;;;;;;5079094;28;20466;-74
2022/05/23 10:16:09;;;;;;;1.27;0.70;;;;;;;;;;5094779;28;20451;-75
2022/05/23 10:18:37;;;;;;;0.80;0.67;;;;;;;;;;5096403;28;20994;-75
2022/05/23 10:21:19;;;;;;;0.80;0.70;;;;;;;;;;5095326;28;20506;-76
2022/05/23 10:23:57;;;;;;;0.70;0.60;;;;;;;;;;5095831;28;20418;-77
2022/05/23 10:26:25;;;;;;;0.80;0.70;;;;;;;;;;5094731;28;20426;-81
2022/05/23 10:28:54;;;;;;;1.43;0.83;;;;;;;;;;5074558;28;20450;-75
2022/05/23 10:31:26;;;;;;;0.80;0.60;;;;;;;;;;5074869;28;20443;-75
2022/05/23 10:33:58;;;;;;;0.80;0.70;;;;;;;;;;5057884;28;20515;-75
2022/05/23 10:36:31;;;;;;;0.90;0.77;;;;;;;;;;5091234;28;20455;-74
2022/05/23 10:42:10;;;;;;;0.70;0.60;;;;;;;;;;5076225;28;20459;-76
2022/05/23 10:44:45;;;;;;;0.90;0.70;;;;;;;;;;5075049;28;20411;-77
2022/05/23 10:47:18;;;;;;;1.00;0.73;;;;;;;;;;5074204;28;20959;-75
2022/05/23 10:49:52;;;;;;;0.70;0.60;;;;;;;;;;5069299;28;20443;-77
2022/05/23 10:52:30;;;;;;;0.80;0.80;;;;;;;;;;5091411;28;20481;-75
2022/05/23 10:54:59;;;;;;;0.83;0.60;;;;;;;;;;5092377;28;20428;-75
2022/05/23 10:57:32;;;;;;;0.70;0.60;;;;;;;;;;5077760;28;20518;-77
2022/05/23 11:00:03;;;;;;;0.80;0.70;;;;;;;;;;5094011;28;20442;-73
2022/05/23 11:02:36;;;;;;;1.00;0.87;;;;;;;;;;5095037;28;20541;-77
2022/05/23 11:05:11;;;;;;;0.70;0.50;;;;;;;;;;5095933;28;20439;-76
2022/05/23 11:07:56;;;;;;;0.80;0.70;;;;;;;;;;5095072;28;20564;-76
2022/05/23 11:10:27;;;;;;;0.80;0.70;;;;;;;;;;5081311;28;20450;-75
2022/05/23 11:13:18;;;;;;;0.70;0.60;;;;;;;;;;5095488;28;20456;-74
2022/05/23 11:15:57;;;;;;;1.00;0.90;;;;;;;;;;5090841;28;20454;-74
2022/05/23 11:18:34;;;;;;;0.70;0.50;;;;;;;;;;5086948;28;20487;-75
2022/05/23 11:21:04;;;;;;;0.80;0.60;;;;;;;;;;5094214;28;20445;-75
2022/05/23 11:23:36;;;;;;;0.80;0.70;;;;;;;;;;5076409;28;20938;-77
2022/05/23 11:26:07;;;;;;;0.80;0.60;;;;;;;;;;5093942;28;20486;-75
2022/05/23 11:34:13;;;;;;;0.80;0.80;;;;;;;;;;5093054;28;20442;-75
2022/05/23 11:39:42;;;;;;;0.70;0.70;;;;;;;;;;5092996;28;20433;-76
2022/05/23 11:42:14;;;;;;;1.00;0.90;;;;;;;;;;5094483;28;20446;-77
2022/05/23 11:44:56;;;;;;;0.70;0.70;;;;;;;;;;5092942;28;20962;-77
2022/05/23 11:47:25;;;;;;;0.80;0.70;;;;;;;;;;5075527;28;20466;-78
2022/05/23 11:50:15;;;;;;;0.83;0.77;;;;;;;;;;5093251;28;20803;-77
2022/05/23 11:52:44;;;;;;;1.47;0.87;;;;;;;;;;5093664;28;20452;-75
2022/05/23 11:55:11;;;;;;;1.50;1.40;;;;;;;;;;5093825;28;20446;-75
2022/05/23 11:57:40;;;;;;;0.80;0.80;;;;;;;;;;5093217;28;20435;-77
2022/05/23 12:00:28;;;;;;;0.70;0.50;;;;;;;;;;5093739;28;20462;-77
2022/05/23 12:03:03;;;;;;;1.43;1.13;;;;;;;;;;5094663;28;20454;-78
2022/05/23 12:05:31;;;;;;;0.70;0.60;;;;;;;;;;5092646;28;20953;-75
2022/05/23 12:08:02;;;;;;;0.80;0.60;;;;;;;;;;5093131;28;20500;-75
2022/05/23 12:10:41;;;;;;;0.90;0.80;;;;;;;;;;5094412;28;20418;-78
2022/05/23 12:16:37;;;;;;;0.73;0.60;;;;;;;;;;5091534;27;20925;-75
2022/05/23 12:19:11;;;;;;;1.53;1.43;;;;;;;;;;5069342;28;20470;-76
2022/05/23 12:21:40;;;;;;;0.87;0.70;;;;;;;;;;5069579;28;20475;-77
2022/05/23 12:24:12;;;;;;;0.80;0.70;;;;;;;;;;5071030;28;20755;-78
2022/05/23 12:27:03;;;;;;;0.70;0.60;;;;;;;;;;5069580;28;20427;-79
2022/05/23 12:29:32;;;;;;;0.77;0.60;;;;;;;;;;5069562;28;20446;-76
2022/05/23 12:32:25;;;;;;;1.67;1.03;;;;;;;;;;5069413;28;20904;-76
2022/05/23 12:34:53;;;;;;;0.77;0.60;;;;;;;;;;5069756;28;20474;-76
2022/05/23 12:37:28;;;;;;;0.80;0.70;;;;;;;;;;5070664;28;20887;-77
2022/05/23 12:40:10;;;;;;;0.73;0.63;;;;;;;;;;5069213;28;20470;-76
2022/05/23 12:42:50;;;;;;;0.80;0.70;;;;;;;;;;5067040;28;20847;-76
2022/05/23 12:45:32;;;;;;;0.90;0.80;;;;;;;;;;5068729;28;20434;-76
2022/05/23 12:48:21;;;;;;;0.80;0.70;;;;;;;;;;5051570;28;20431;-75
2022/05/23 12:50:53;;;;;;;0.80;0.60;;;;;;;;;;5068187;28;20451;-76
2022/05/23 12:53:32;;;;;;;0.80;0.70;;;;;;;;;;5068876;28;20441;-75
2022/05/23 12:56:05;;;;;;;0.73;0.67;;;;;;;;;;5067504;28;21056;-75
2022/05/23 12:58:39;;;;;;;0.80;0.73;;;;;;;;;;5070000;28;20411;-74
2022/05/23 13:01:08;;;;;;;0.80;0.70;;;;;;;;;;5085408;28;20780;-77
2022/05/23 13:03:41;;;;;;;3.13;2.10;;;;;;;;;;5084021;28;20446;-75
2022/05/23 13:06:12;;;;;;;0.77;0.67;;;;;;;;;;5090708;28;20421;-75
2022/05/23 13:08:43;;;;;;;0.80;0.77;;;;;;;;;;5089131;28;20960;-75
2022/05/23 13:11:14;;;;;;;1.00;0.90;;;;;;;;;;5085020;28;20413;-74
2022/05/23 13:13:43;;;;;;;0.80;0.60;;;;;;;;;;5060798;28;20457;-73
2022/05/23 13:16:15;;;;;;;0.80;0.70;;;;;;;;;;5068922;28;20459;-77
2022/05/23 13:24:48;;;;;;;0.77;0.70;;;;;;;;;;5090427;28;20441;-72
2022/05/23 13:27:05;;;;;;;0.80;0.70;;;;;;;;;;5077266;28;20475;-71
2022/05/23 13:29:33;;;;;;;0.80;0.70;;;;;;;;;;5076971;28;20431;-68
2022/05/23 13:32:01;;;;;;;0.97;0.87;;;;;;;;;;5075069;28;20447;-68
2022/05/23 13:34:33;;;;;;;5.33;0.90;;;;;;;;;;5076311;28;20479;-69
2022/05/23 13:37:00;;;;;;;0.80;0.60;;;;;;;;;;5076273;28;20450;-69
2022/05/23 13:39:28;;;;;;;0.80;0.70;;;;;;;;;;5074689;28;20442;-71
2022/05/23 13:41:56;;;;;;;0.80;0.60;;;;;;;;;;5075546;28;20473;-70
2022/05/23 13:44:24;;;;;;;0.70;0.60;;;;;;;;;;5075860;28;20511;-71
2022/05/23 13:46:53;;;;;;;0.80;0.70;;;;;;;;;;5074881;28;21027;-71
2022/05/23 13:49:22;;;;;;;0.70;0.60;;;;;;;;;;5064587;28;20435;-72
2022/05/23 13:51:52;;;;;;;0.80;0.77;;;;;;;;;;5054447;28;20475;-72
2022/05/23 13:54:22;;;;;;;0.70;0.60;;;;;;;;;;5054765;28;20428;-71
2022/05/23 13:56:51;;;;;;;0.70;0.60;;;;;;;;;;5058787;28;21160;-71
2022/05/23 13:59:20;;;;;;;0.80;0.80;;;;;;;;;;5066049;28;20944;-72
2022/05/23 14:01:51;;;;;;;1.33;1.23;;;;;;;;;;5075719;28;20435;-72
2022/05/23 14:04:26;;;;;;;1.33;1.20;;;;;;;;;;5061405;28;20446;-73
2022/05/23 14:06:56;;;;;;;0.97;0.83;;;;;;;;;;5059707;28;20524;-72
2022/05/23 14:09:27;;;;;;;0.70;0.70;;;;;;;;;;5071246;28;20409;-72
2022/05/23 14:12:01;;;;;;;0.70;0.60;;;;;;;;;;5073392;28;20412;-71
2022/05/23 14:14:30;;;;;;;0.87;0.73;;;;;;;;;;5077040;28;20422;-71
2022/05/23 14:16:58;;;;;;;0.70;0.60;;;;;;;;;;5078574;28;20410;-71
2022/05/23 14:19:27;;;;;;;0.80;0.63;;;;;;;;;;5074215;28;20438;-72
2022/05/23 14:22:07;;;;;;;0.70;0.60;;;;;;;;;;5079419;28;20467;-71
2022/05/23 14:24:40;;;;;;;0.70;0.60;;;;;;;;;;5076576;28;20403;-71
2022/05/23 14:27:25;;;;;;;0.80;0.70;;;;;;;;;;5055480;28;20534;-71
2022/05/23 14:30:11;;;;;;;1.10;1.00;;;;;;;;;;5054796;28;20420;-71
2022/05/23 14:32:38;;;;;;;0.80;0.70;;;;;;;;;;5055916;28;20486;-71
2022/05/23 14:35:09;;;;;;;0.70;0.60;;;;;;;;;;5055258;28;20448;-71
2022/05/23 14:37:39;;;;;;;0.80;0.70;;;;;;;;;;5058644;28;20466;-71
2022/05/23 14:40:08;;;;;;;0.80;0.70;;;;;;;;;;5059111;28;20466;-71
2022/05/23 14:42:36;;;;;;;0.80;0.70;;;;;;;;;;5055393;28;20432;-70
2022/05/23 14:45:12;;;;;;;0.80;0.70;;;;;;;;;;5055166;28;20416;-71
2022/05/23 14:47:53;;;;;;;0.80;0.70;;;;;;;;;;5069273;28;20420;-71
2022/05/23 14:50:21;;;;;;;1.00;0.90;;;;;;;;;;5075448;28;20401;-71
2022/05/23 14:55:42;;;;;;;1.33;1.23;;;;;;;;;;5069728;28;20471;-73
2022/05/23 15:01:02;;;;;;;0.70;0.60;;;;;;;;;;5054441;28;20412;-72
2022/05/23 15:03:35;;;;;;;0.83;0.83;;;;;;;;;;5053042;28;20440;-72
2022/05/23 15:06:03;;;;;;;0.80;0.80;;;;;;;;;;5054171;28;20998;-71
2022/05/23 15:08:31;;;;;;;0.80;0.70;;;;;;;;;;5063777;28;20461;-70
2022/05/23 15:10:59;;;;;;;0.80;0.70;;;;;;;;;;5071287;28;20489;-70
2022/05/23 15:13:28;;;;;;;0.80;0.70;;;;;;;;;;5063096;28;20442;-72
2022/05/23 15:16:02;;;;;;;0.73;0.70;;;;;;;;;;5067203;28;20467;-71
2022/05/23 15:18:31;;;;;;;0.70;0.70;;;;;;;;;;5062839;28;20439;-72
2022/05/23 15:20:58;;;;;;;0.80;0.70;;;;;;;;;;5072842;28;20459;-71
2022/05/23 15:23:25;;;;;;;0.70;0.60;;;;;;;;;;5065043;28;20447;-71
2022/05/23 15:25:53;;;;;;;0.80;0.70;;;;;;;;;;5054542;28;20469;-73
2022/05/23 15:28:20;;;;;;;0.80;0.70;;;;;;;;;;5054250;28;20465;-72
2022/05/23 15:30:47;;;;;;;0.73;0.70;;;;;;;;;;5054201;28;20432;-72
2022/05/23 15:33:15;;;;;;;0.70;0.67;;;;;;;;;;5054079;28;20907;-73
2022/05/23 15:35:42;;;;;;;0.70;0.70;;;;;;;;;;5065057;28;20488;-72
2022/05/23 15:38:08;;;;;;;1.17;1.07;;;;;;;;;;5072773;28;20494;-72
2022/05/23 15:40:36;;;;;;;0.80;0.80;;;;;;;;;;5073590;28;20429;-71
2022/05/23 15:43:05;;;;;;;0.80;0.70;;;;;;;;;;5072917;28;20511;-72
2022/05/23 15:45:33;;;;;;;0.70;0.70;;;;;;;;;;5070910;28;20471;-71
2022/05/23 15:48:02;;;;;;;0.70;0.70;;;;;;;;;;5049383;28;20484;-71
2022/05/23 15:50:29;;;;;;;0.80;0.70;;;;;;;;;;5073283;28;20415;-72
2022/05/23 15:52:55;;;;;;;0.70;0.70;;;;;;;;;;5070479;28;20474;-73
2022/05/23 15:55:23;;;;;;;0.90;0.90;;;;;;;;;;5053835;28;20456;-72
2022/05/23 15:57:50;;;;;;;0.80;0.80;;;;;;;;;;5065194;28;20439;-72
2022/05/23 16:00:19;;;;;;;0.70;0.70;;;;;;;;;;5073463;28;20771;-72
2022/05/23 16:02:51;;;;;;;0.70;0.63;;;;;;;;;;5072824;28;20418;-72
2022/05/23 16:05:18;;;;;;;0.70;0.70;;;;;;;;;;5072410;28;20499;-72
2022/05/23 16:07:45;;;;;;;1.10;1.00;;;;;;;;;;5061901;28;20874;-72
2022/05/23 16:10:12;;;;;;;0.70;0.63;;;;;;;;;;5053718;28;20412;-72
2022/05/23 16:12:42;;;;;;;0.70;0.70;;;;;;;;;;5068416;28;20935;-73
2022/05/23 16:15:11;;;;;;;0.70;0.60;;;;;;;;;;5072850;28;20482;-71
2022/05/23 16:17:43;;;;;;;0.70;0.70;;;;;;;;;;5063553;28;20436;-72
2022/05/23 16:20:10;;;;;;;0.73;0.70;;;;;;;;;;5053685;28;20501;-72
2022/05/23 16:22:38;;;;;;;1.10;1.00;;;;;;;;;;5053261;28;20484;-72
2022/05/23 16:25:08;;;;;;;0.70;0.60;;;;;;;;;;5053702;28;20411;-72